Home > Products > Valid Products > MTR

000
SAUS41 KBOX 011955
MTRMQE
METAR KMQE 011954Z AUTO 05014G25KT 13/13 A3004 RMK AO1 SLP185 P0001
T01280128





000
SAUS41 KBOX 011855
MTRMQE
METAR KMQE 011854Z AUTO 05013G25KT 12/12 A3004 RMK AO1 PK WND
05028/1756 SLP182 P0012 T01220122





000
SAUS41 KBOX 011755
MTRMQE
METAR KMQE 011754Z AUTO 05014G25KT 12/12 A3003 RMK AO1 PK WND
05028/1725 SLP181 P0034 60083 T01220122 10133 20122 58010





000
SAUS41 KBOX 011655
MTRMQE
METAR KMQE 011654Z AUTO 04011G23KT 13/13 A3006 RMK AO1 SLP191 P0017
T01280128





000
SAUS41 KBOX 011556
MTRMQE
METAR KMQE 011554Z AUTO 03008G15KT 13/13 A3008 RMK AO1 SLP195 P0016
T01280128





000
SAUS41 KBOX 011455
MTRMQE
METAR KMQE 011454Z AUTO 04013G18KT 13/13 A3006 RMK AO1 SLP191 P0014
60016 T01280128 51010





000
SAUS41 KBOX 011355
MTRMQE
METAR KMQE 011354Z AUTO 02009G18KT 13/13 A3006 RMK AO1 SLP189 P0002
T01330133





000
SAUS41 KBOX 011255
MTRMQE
METAR KMQE 011254Z AUTO 03010G23KT 13/13 A3004 RMK AO1 SLP184
T01280128





000
SAUS41 KBOX 011156
MTRMQE
METAR KMQE 011154Z AUTO 04010G20KT 13/13 A3003 RMK AO1 SLP181 P0001
60003 70016 T01280128 10128 20128 51009





000
SAUS41 KBOX 011055
MTRMQE
METAR KMQE 011054Z AUTO 03009G16KT 13/13 A3003 RMK AO1 SLP179 P0001
T01280128





000
SAUS41 KBOX 010955
MTRMQE
METAR KMQE 010954Z AUTO 03012G18KT 13/13 A3001 RMK AO1 SLP175
T01280128





000
SAUS41 KBOX 010855
MTRMQE
METAR KMQE 010854Z AUTO 03009KT 13/13 A3001 RMK AO1 SLP172 60001
T01280128 55003





000
SAUS41 KBOX 010755
MTRMQE
METAR KMQE 010754Z AUTO 03010G18KT 13/13 A3000 RMK AO1 SLP171
T01280128





000
SAUS41 KBOX 010655
MTRMQE
METAR KMQE 010654Z AUTO 03010G17KT 13/13 A3000 RMK AO1 SLP170 P0001
T01280128





000
SAUS41 KBOX 010555
MTRMQE
METAR KMQE 010554Z AUTO 03012G19KT 13/13 A3001 RMK AO1 SLP174
T01280128 10128 20117 58002





000
SAUS41 KBOX 010455
MTRMQE
METAR KMQE 010454Z AUTO 02010KT 12/12 A3002 RMK AO1 SLP176 T01220122
401280117





000
SAUS41 KBOX 010356
MTRMQE
METAR KMQE 010354Z AUTO 02007KT 12/12 A3002 RMK AO1 SLP178 T01220122





000
SAUS41 KBOX 010255
MTRMQE
METAR KMQE 010254Z AUTO 03008KT 12/12 A3002 RMK AO1 SLP176 T01220122
54000





000
SAUS41 KBOX 010155
MTRMQE
METAR KMQE 010154Z AUTO 02008G16KT 12/12 A3001 RMK AO1 SLP174
T01220122





000
SAUS41 KBOX 010055
MTRMQE
METAR KMQE 010054Z AUTO 01007KT 12/12 A3002 RMK AO1 SLP178 T01220122





000
SAUS41 KBOX 302355
MTRMQE
METAR KMQE 302354Z AUTO 05008KT 12/12 A3002 RMK AO1 SLP176 60009
T01220117 10122 20117 51010





000
SAUS41 KBOX 302256
MTRMQE
METAR KMQE 302254Z AUTO 04007KT 12/12 A3001 RMK AO1 SLP174 T01170117





000
SAUS41 KBOX 302155
MTRMQE
METAR KMQE 302154Z AUTO 02005KT 12/12 A3000 RMK AO1 SLP171 P0001
T01220122





000
SAUS41 KBOX 302055
MTRMQE
METAR KMQE 302054Z AUTO 02007KT 12/12 A2999 RMK AO1 SLP165 P0001
60008 T01220122 56005





000
SAUS41 KBOX 301955
MTRMQE
METAR KMQE 301954Z AUTO 04007KT 360V070 12/12 A2999 RMK AO1 SLP167
P0003 T01220122





000
SAUS41 KBOX 301855
MTRMQE
METAR KMQE 301854Z AUTO 02012G18KT 12/12 A2998 RMK AO1 SLP163 P0004
T01220122





000
SAUS41 KBOX 301755
MTRMQE
METAR KMQE 301754Z AUTO 04010KT 12/12 A3000 RMK AO1 SLP170 P0001
60004 T01220122 10128 20117 58008





000
SAUS41 KBOX 301655
MTRMQE
METAR KMQE 301654Z AUTO 04008KT 12/12 A3002 RMK AO1 SLP176 P0001
T01220122





000
SAUS41 KBOX 301555
MTRMQE
METAR KMQE 301554Z AUTO 05008KT 12/12 A3002 RMK AO1 SLP176 P0001
T01220122





000
SAUS41 KBOX 301455
MTRMQE
METAR KMQE 301454Z AUTO 05007KT 12/12 A3003 RMK AO1 SLP179 P0001
60001 T01220122 50002





000
SAUS41 KBOX 301355
MTRMQE
METAR KMQE 301354Z AUTO 04005KT 12/12 A3004 RMK AO1 SLP184 T01220122





000
SAUS41 KBOX 301255
MTRMQE
METAR KMQE 301254Z AUTO 04009G16KT 12/12 A3002 RMK AO1 SLP177
T01220122





000
SAUS41 KBOX 301155
MTRMQE
METAR KMQE 301154Z AUTO 05010G21KT 12/12 A3002 RMK AO1 SLP176 70002
T01170117 10128 20117 52008





000
SAUS41 KBOX 301055
MTRMQE
METAR KMQE 301054Z AUTO 04007G15KT 12/12 A3001 RMK AO1 SLP174
T01220122





000
SAUS41 KBOX 300955
MTRMQE
METAR KMQE 300954Z AUTO 03010G16KT 12/12 A3000 RMK AO1 SLP170
T01220122





000
SAUS41 KBOX 300855
MTRMQE
METAR KMQE 300854Z AUTO 04007G17KT 360V070 12/12 A2999 RMK AO1
SLP167 T01220122 53001





000
SAUS41 KBOX 300755
MTRMQE
METAR KMQE 300754Z AUTO 02008G14KT 12/12 A2999 RMK AO1 SLP165
T01220122





000
SAUS41 KBOX 300655
MTRMQE
METAR KMQE 300654Z AUTO 02007KT 12/12 A3000 RMK AO1 SLP166 T01220122





000
SAUS41 KBOX 300555
MTRMQE
METAR KMQE 300554Z AUTO 13/13 A2999 RMK AO1 SLP165 60002 T01280128
10139 20128 58007





000
SAUS41 KBOX 300455
MTRMQE
METAR KMQE 300454Z AUTO VRB04KT 13/13 A3001 RMK AO1 SLP170 P0001
T01280128 402390128





000
SAUS41 KBOX 300355
MTRMQE
METAR KMQE 300354Z AUTO 02006KT 13/13 A3001 RMK AO1 SLP171 T01330133





000
SAUS41 KBOX 300255
MTRMQE
METAR KMQE 300254Z AUTO 03007KT 330V050 13/13 A3001 RMK AO1 SLP172
60001 T01330133 53005





000
SAUS41 KBOX 300155
MTRMQE
METAR KMQE 300154Z AUTO 03009KT 13/13 A3000 RMK AO1 SLP167 P0001
T01330133





000
SAUS41 KBOX 300056
MTRMQE
METAR KMQE 300054Z AUTO 02009G23KT 350V050 14/14 A3000 RMK AO1
SLP168 T01390139





000
SAUS41 KBOX 292355
MTRMQE
METAR KMQE 292354Z AUTO 04010G19KT 14/14 A3000 RMK AO1 SLP167
T01390139 10222 20139 53007





000
SAUS41 KBOX 292255
MTRMQE
METAR KMQE 292254Z AUTO 05012G18KT 14/14 A2998 RMK AO1 SLP161
T01440144





000
SAUS41 KBOX 292155
MTRMQE
METAR KMQE 292154Z AUTO 05011G22KT 15/15 A2997 RMK AO1 SLP157
T01500150





000
SAUS41 KBOX 292055
MTRMQE
METAR KMQE 292054Z AUTO 06010G17KT 16/15 A2998 RMK AO1 SLP160
T01610150 53005





000
SAUS41 KBOX 291955
MTRMQE
METAR KMQE 291954Z AUTO 06012G19KT 18/14 A2995 RMK AO1 SLP152
T01830139





000
SAUS41 KBOX 291855
MTRMQE
METAR KMQE 291854Z AUTO 08007KT 22/14 A2995 RMK AO1 SLP150 T02170144





000
SAUS41 KBOX 291755
MTRMQE
METAR KMQE 291754Z AUTO 03008KT 22/14 A2996 RMK AO1 SLP154 T02220144
10239 20183 58005





000
SAUS41 KBOX 291655
MTRMQE
METAR KMQE 291654Z AUTO VRB06KT 23/14 A2997 RMK AO1 SLP156 T02330139





000
SAUS41 KBOX 291555
MTRMQE
METAR KMQE 291554Z AUTO VRB03KT 21/16 A2997 RMK AO1 SLP158 T02110156





000
SAUS41 KBOX 291455
MTRMQE
METAR KMQE 291454Z AUTO 01003KT 21/14 A2998 RMK AO1 SLP159 T02060144
51003





000
SAUS41 KBOX 291355
MTRMQE
METAR KMQE 291354Z AUTO VRB03KT 21/13 A2998 RMK AO1 SLP159 T02060133





000
SAUS41 KBOX 291255
MTRMQE
METAR KMQE 291254Z AUTO 35005KT 19/14 A2998 RMK AO1 SLP159 T01890139





000
SAUS41 KBOX 291155
MTRMQE
METAR KMQE 291154Z AUTO 30005KT 18/15 A2997 RMK AO1 SLP156 T01830150
10183 20167 53002





000
SAUS41 KBOX 291055
MTRMQE
METAR KMQE 291054Z AUTO 28008KT 18/14 A2996 RMK AO1 SLP153 T01780144





000
SAUS41 KBOX 290955
MTRMQE
METAR KMQE 290954Z AUTO 28010KT 17/16 A2996 RMK AO1 SLP152 T01720156





000
SAUS41 KBOX 290856
MTRMQE
METAR KMQE 290854Z AUTO 27011KT 17/16 A2996 RMK AO1 SLP153 T01720156
56007





000
SAUS41 KBOX 290755
MTRMQE
METAR KMQE 290754Z AUTO 26011KT 17/16 A2997 RMK AO1 SLP154 T01670156





000
SAUS41 KBOX 290655
MTRMQE
METAR KMQE 290654Z AUTO 25010KT 17/16 A2997 RMK AO1 SLP154 T01720156





000
SAUS41 KBOX 290555
MTRMQE
METAR KMQE 290554Z AUTO 24009KT 17/16 A2998 RMK AO1 SLP159 T01720161
10233 20172 56006





000
SAUS41 KBOX 290456
MTRMQE
METAR KMQE 290454Z AUTO 24009KT 18/16 A2999 RMK AO1 SLP160 T01780161
403000172





000
SAUS41 KBOX 290355
MTRMQE
METAR KMQE 290354Z AUTO 23010KT 19/16 A2999 RMK AO1 SLP163 T01890156





000
SAUS41 KBOX 290255
MTRMQE
METAR KMQE 290254Z AUTO 22011KT 19/16 A3000 RMK AO1 SLP166 T01940156
58004





000
SAUS41 KBOX 290155
MTRMQE
METAR KMQE 290154Z AUTO 23010KT 21/16 A3001 RMK AO1 SLP169 T02060161





000
SAUS41 KBOX 290055
MTRMQE
METAR KMQE 290054Z AUTO 22009KT 22/16 A3002 RMK AO1 SLP171 T02170161





000
SAUS41 KBOX 282355
MTRMQE
METAR KMQE 282354Z AUTO 24009KT 23/16 A3001 RMK AO1 SLP171 T02280161
10300 20228





000
SAUS41 KBOX 282256
MTRMQE
METAR KMQE 282254Z AUTO 25008KT 24/16 A3002 RMK AO1 SLP172 T02440156





000
SAUS41 KBOX 282155
MTRMQE
METAR KMQE 282154Z AUTO 29008KT 27/16 A3002 RMK AO1 SLP172 T02670161





000
SAUS41 KBOX 282055
MTRMQE
METAR KMQE 282054Z AUTO 24005KT 28/15 A3002 RMK AO1 SLP170 T02830150
56015





    US Dept of Commerce
    National Oceanic and Atmospheric Administration
    National Weather Service
    1325 East West Highway
    Silver Spring, MD 20910
    Page Author: NWS Internet Services Team
Disclaimer
Information Quality
Credits
Glossary
Privacy Policy
Freedom of Information Act (FOIA)
About Us
Career Opportunities